Time;durP1;ratioP1;P1;durP2;ratioP2;P2;SDS_P1;SDS_P2;PMS_P1;PMS_P2;Temp;Humidity;BMP_temperature;BMP_pressure;BME280_temperature;BME280_humidity;BME280_pressure;Samples;Min_cycle;Max_cycle;Signal;HPM_P1;HPM_P2
2022/08/03 00:01:51;;;;;;;0.00;0.00;;;;;;;20.62;56.05;100157.81;7351186;19;20010;-62
2022/08/03 00:04:17;;;;;;;0.00;0.00;;;;;;;20.54;56.15;100161.06;7352290;19;20772;-62
2022/08/03 00:06:42;;;;;;;0.00;0.00;;;;;;;20.47;56.12;100165.94;7358143;19;20010;-62
2022/08/03 00:09:08;;;;;;;0.00;0.00;;;;;;;20.44;55.86;100171.44;7359367;19;20077;-62
2022/08/03 00:11:34;;;;;;;0.00;0.00;;;;;;;20.38;55.94;100177.19;7359229;19;20014;-62
2022/08/03 00:14:00;;;;;;;0.00;0.00;;;;;;;20.33;56.41;100163.41;7356466;19;20011;-62
2022/08/03 00:16:25;;;;;;;0.00;0.00;;;;;;;20.22;56.62;100160.66;7359880;19;20110;-62
2022/08/03 00:18:51;;;;;;;0.00;0.00;;;;;;;20.23;56.80;100165.03;7351928;19;20018;-62
2022/08/03 00:21:17;;;;;;;0.00;0.00;;;;;;;20.22;56.26;100168.63;7358033;19;20014;-62
2022/08/03 00:23:43;;;;;;;0.10;0.10;;;;;;;20.18;56.37;100165.38;7358140;19;20026;-62
2022/08/03 00:26:08;;;;;;;0.05;0.05;;;;;;;20.13;56.20;100164.00;7358869;19;20118;-62
2022/08/03 00:28:33;;;;;;;0.00;0.00;;;;;;;20.15;56.75;100159.41;7354914;19;20503;-62
2022/08/03 00:30:59;;;;;;;0.00;0.00;;;;;;;20.17;56.71;100168.09;7358829;19;20019;-63
2022/08/03 00:33:24;;;;;;;0.03;0.03;;;;;;;20.15;56.54;100164.72;7356996;19;20015;-62
2022/08/03 00:35:51;;;;;;;0.08;0.08;;;;;;;20.16;56.63;100159.31;7355982;19;20007;-63
2022/08/03 00:38:17;;;;;;;0.00;0.00;;;;;;;20.18;56.52;100159.22;7355379;19;20018;-63
2022/08/03 00:40:42;;;;;;;0.10;0.10;;;;;;;20.18;56.84;100153.91;7357155;19;20007;-62
2022/08/03 00:43:08;;;;;;;0.00;0.00;;;;;;;20.11;56.51;100142.03;7356949;19;20011;-62
2022/08/03 00:45:36;;;;;;;0.00;0.00;;;;;;;20.16;56.50;100154.00;7353908;19;20010;-62
2022/08/03 00:48:04;;;;;;;0.10;0.10;;;;;;;20.21;57.03;100161.63;7355768;19;20454;-62
2022/08/03 00:50:33;;;;;;;0.00;0.00;;;;;;;20.17;57.34;100154.84;7356695;19;20019;-62
2022/08/03 00:53:01;;;;;;;0.00;0.00;;;;;;;20.21;56.77;100158.97;7357052;19;20485;-62
2022/08/03 00:55:27;;;;;;;0.10;0.10;;;;;;;20.23;56.80;100165.03;7354809;19;20535;-62
2022/08/03 00:57:53;;;;;;;0.00;0.00;;;;;;;20.14;57.23;100149.78;7357877;19;20116;-63
2022/08/03 01:00:22;;;;;;;0.10;0.10;;;;;;;20.26;57.04;100162.16;7357880;19;20006;-62
2022/08/03 01:02:47;;;;;;;0.00;0.00;;;;;;;20.23;57.12;100156.25;7357665;19;20030;-61
2022/08/03 01:05:13;;;;;;;0.10;0.10;;;;;;;20.24;56.85;100158.78;7361674;19;20007;-62
2022/08/03 01:08:30;;;;;;;0.03;0.03;;;;;;;20.31;56.38;100154.72;7362590;19;20033;-62
2022/08/03 01:11:10;;;;;;;0.03;0.03;;;;;;;20.29;56.47;100159.28;7257930;19;2004476;-62
2022/08/03 01:13:54;;;;;;;0.00;0.00;;;;;;;20.24;57.49;100164.06;7364343;19;20561;-62
2022/08/03 01:16:27;;;;;;;0.00;0.00;;;;;;;20.22;57.37;100163.31;7363900;19;20030;-62
2022/08/03 01:19:08;;;;;;;0.00;0.00;;;;;;;20.24;57.13;100150.81;7364961;19;20056;-62
2022/08/03 01:21:46;;;;;;;0.05;0.05;;;;;;;20.22;57.40;100150.06;7361907;19;20857;-62
2022/08/03 01:24:20;;;;;;;0.03;0.03;;;;;;;20.20;57.68;100163.44;7360196;19;20013;-62
2022/08/03 01:27:04;;;;;;;0.10;0.10;;;;;;;20.23;57.24;100161.53;7361216;19;20021;-63
2022/08/03 01:30:04;;;;;;;0.00;0.00;;;;;;;20.21;57.31;100154.53;7361925;19;20003;-62
2022/08/03 01:32:53;;;;;;;0.00;0.00;;;;;;;20.19;57.46;100150.31;7261433;19;2004285;-62
2022/08/03 01:35:28;;;;;;;0.10;0.10;;;;;;;20.17;58.78;100157.50;7362888;19;20343;-62
2022/08/03 01:37:59;;;;;;;0.00;0.00;;;;;;;20.15;59.07;100156.78;7363336;19;20784;-62
2022/08/03 01:40:27;;;;;;;0.00;0.00;;;;;;;20.11;59.57;100152.63;7361612;19;20017;-62
2022/08/03 01:42:56;;;;;;;0.10;0.10;;;;;;;20.07;59.91;100144.06;7364148;19;20037;-62
2022/08/03 01:45:23;;;;;;;0.00;0.00;;;;;;;20.02;59.32;100137.38;7361766;19;21397;-62
2022/08/03 01:47:49;;;;;;;0.00;0.00;;;;;;;19.86;59.00;100125.22;7356515;19;20609;-62
2022/08/03 01:50:15;;;;;;;0.00;0.00;;;;;;;19.91;59.61;100141.63;7363872;19;20022;-63
2022/08/03 01:52:43;;;;;;;0.10;0.10;;;;;;;19.90;59.06;100139.09;7363673;19;20029;-62
2022/08/03 01:55:11;;;;;;;0.00;0.00;;;;;;;19.85;59.50;100130.63;7357236;19;20492;-62
2022/08/03 01:57:39;;;;;;;0.00;0.00;;;;;;;19.80;59.38;100152.16;7357349;19;20773;-62
2022/08/03 02:00:08;;;;;;;0.00;0.00;;;;;;;19.44;59.92;100106.03;7361379;19;20803;-63
2022/08/03 02:02:35;;;;;;;0.10;0.10;;;;;;;19.71;59.56;100150.13;7363072;19;20015;-62
2022/08/03 02:05:04;;;;;;;0.05;0.05;;;;;;;19.70;59.49;100156.38;7362507;19;20018;-62
2022/08/03 02:07:31;;;;;;;0.00;0.00;;;;;;;19.69;60.02;100157.34;7364402;19;20727;-62
2022/08/03 02:09:59;;;;;;;0.10;0.10;;;;;;;19.63;59.77;100148.03;7361551;19;20036;-62
2022/08/03 02:12:27;;;;;;;0.00;0.00;;;;;;;19.67;59.74;100156.63;7363032;19;20018;-62
2022/08/03 02:14:55;;;;;;;0.00;0.00;;;;;;;19.45;60.17;100118.31;7364417;19;20106;-63
2022/08/03 02:17:22;;;;;;;0.10;0.10;;;;;;;19.58;59.63;100139.53;7363168;19;20091;-62
2022/08/03 02:19:49;;;;;;;0.10;0.10;;;;;;;19.55;59.54;100137.06;7362168;19;20020;-62
2022/08/03 02:22:16;;;;;;;0.00;0.00;;;;;;;19.64;59.87;100148.88;7361721;19;20010;-62
2022/08/03 02:24:41;;;;;;;0.00;0.00;;;;;;;19.20;59.92;100081.25;7362195;19;20033;-61
2022/08/03 02:27:17;;;;;;;0.00;0.00;;;;;;;19.59;59.78;100156.25;7362613;19;20019;-62
2022/08/03 02:29:47;;;;;;;0.00;0.00;;;;;;;19.55;59.94;100154.75;7363387;19;20106;-62
2022/08/03 02:32:16;;;;;;;0.00;0.00;;;;;;;19.55;60.16;100154.75;7362090;19;21481;-62
2022/08/03 02:34:46;;;;;;;0.00;0.00;;;;;;;19.52;59.47;100155.00;7362631;19;20010;-62
2022/08/03 02:37:13;;;;;;;0.00;0.00;;;;;;;19.47;60.35;100151.81;7362512;19;20498;-62
2022/08/03 02:39:40;;;;;;;;;;;;;;;19.48;58.39;100148.22;7366160;19;20010;-62
2022/08/03 02:42:09;;;;;;;0.00;0.00;;;;;;;19.40;60.64;100154.84;7362872;19;19914;-63
2022/08/03 02:44:36;;;;;;;0.10;0.10;;;;;;;19.39;60.31;100153.16;7364322;19;20014;-62
2022/08/03 02:47:09;;;;;;;0.10;0.10;;;;;;;19.37;59.96;100152.44;7358972;19;20006;-62
2022/08/03 02:49:37;;;;;;;0.03;0.03;;;;;;;19.30;60.15;100137.91;7365283;19;20569;-62
2022/08/03 02:52:04;;;;;;;0.00;0.00;;;;;;;19.20;60.14;100128.88;7359613;19;20027;-62
2022/08/03 02:54:32;;;;;;;0.10;0.10;;;;;;;19.30;60.45;100150.28;7360207;19;20010;-62
2022/08/03 02:56:59;;;;;;;0.00;0.00;;;;;;;19.25;60.51;100153.25;7362423;19;20501;-62
2022/08/03 02:59:27;;;;;;;0.00;0.00;;;;;;;19.22;60.51;100155.28;7362095;19;20041;-60
2022/08/03 03:01:53;;;;;;;0.00;0.00;;;;;;;19.17;61.06;100147.66;7364201;19;20159;-63
2022/08/03 03:04:20;;;;;;;0.10;0.10;;;;;;;19.13;61.01;100148.78;7352158;19;20024;-63
2022/08/03 03:06:46;;;;;;;0.00;0.00;;;;;;;19.02;60.90;100135.44;7363190;19;20589;-63
2022/08/03 03:09:11;;;;;;;0.00;0.00;;;;;;;19.07;60.75;100149.22;7361405;19;20014;-62
2022/08/03 03:11:39;;;;;;;0.00;0.00;;;;;;;19.02;61.28;100140.72;7364563;19;20014;-62
2022/08/03 03:14:06;;;;;;;0.00;0.00;;;;;;;19.01;60.72;100146.94;7361357;19;20011;-62
2022/08/03 03:16:32;;;;;;;0.10;0.10;;;;;;;19.00;61.36;100147.91;7362949;19;20026;-62
2022/08/03 03:18:58;;;;;;;0.05;0.05;;;;;;;18.98;61.23;100149.81;7355743;19;20011;-62
2022/08/03 03:21:26;;;;;;;0.00;0.00;;;;;;;18.95;61.34;100156.13;7358738;19;20002;-62
2022/08/03 03:23:53;;;;;;;0.00;0.00;;;;;;;18.99;61.21;100162.09;7363804;19;20014;-62
2022/08/03 03:26:18;;;;;;;0.00;0.00;;;;;;;18.84;61.52;100146.28;7362326;19;20018;-62
2022/08/03 03:28:44;;;;;;;0.10;0.10;;;;;;;18.95;61.82;100165.88;7356830;19;20021;-62
2022/08/03 03:31:10;;;;;;;0.00;0.00;;;;;;;18.92;61.44;100175.72;7362253;19;20018;-62
2022/08/03 03:33:37;;;;;;;0.00;0.00;;;;;;;18.90;61.70;100180.25;7362980;19;20045;-63
2022/08/03 03:36:03;;;;;;;0.00;0.00;;;;;;;18.95;61.96;100171.16;7363701;19;20011;-62
2022/08/03 03:38:29;;;;;;;0.08;0.08;;;;;;;18.96;61.66;100178.16;7362032;19;20026;-62
2022/08/03 03:40:55;;;;;;;0.00;0.00;;;;;;;18.98;61.46;100197.44;7364329;19;20505;-62
2022/08/03 03:43:22;;;;;;;0.00;0.00;;;;;;;19.00;61.59;100195.53;7361883;19;20015;-62
2022/08/03 03:45:48;;;;;;;0.10;0.10;;;;;;;18.93;61.17;100177.41;7360434;19;20029;-62
2022/08/03 03:48:14;;;;;;;0.00;0.00;;;;;;;18.98;61.31;100193.00;7363741;19;20361;-62
2022/08/03 03:50:40;;;;;;;0.00;0.00;;;;;;;18.99;61.18;100185.91;7362160;19;20037;-62
2022/08/03 03:53:11;;;;;;;0.00;0.00;;;;;;;18.99;60.75;100193.84;7360987;19;20468;-62
2022/08/03 03:55:38;;;;;;;0.10;0.10;;;;;;;18.90;60.78;100169.66;7362566;19;20011;-62
2022/08/03 03:58:04;;;;;;;0.10;0.10;;;;;;;18.97;60.59;100190.47;7362398;19;21179;-62
2022/08/03 04:00:30;;;;;;;0.10;0.10;;;;;;;18.95;60.25;100194.97;7362382;19;20085;-62
2022/08/03 04:02:56;;;;;;;0.00;0.00;;;;;;;18.92;60.20;100191.59;7361588;19;20010;-63
2022/08/03 04:11:27;;;;;;;0.00;0.00;;;;;;;18.91;59.95;100208.44;7258267;19;2004597;-62
2022/08/03 04:14:00;;;;;;;0.00;0.00;;;;;;;18.88;60.65;100213.06;7258637;19;2004445;-63
2022/08/03 04:16:30;;;;;;;0.00;0.00;;;;;;;18.85;61.11;100219.38;7364898;19;20029;-63
2022/08/03 04:19:01;;;;;;;0.10;0.10;;;;;;;18.84;61.46;100225.63;7356275;19;20030;-63
2022/08/03 04:21:29;;;;;;;0.00;0.00;;;;;;;18.67;61.54;100204.69;7361130;19;20010;-62
2022/08/03 04:24:02;;;;;;;0.00;0.00;;;;;;;18.78;61.93;100223.38;7359552;19;20089;-62
2022/08/03 04:26:30;;;;;;;0.00;0.00;;;;;;;18.79;62.17;100216.31;7360295;19;20010;-62
2022/08/03 04:28:57;;;;;;;0.00;0.00;;;;;;;18.77;61.94;100227.00;7361130;19;20835;-62
2022/08/03 04:31:24;;;;;;;0.10;0.10;;;;;;;18.76;62.33;100230.59;7362198;19;20006;-62
2022/08/03 04:33:52;;;;;;;0.10;0.10;;;;;;;18.78;62.27;100233.13;7358490;19;20019;-62
2022/08/03 04:36:19;;;;;;;;;;;;;;;18.71;60.48;100205.38;7361642;19;20011;-62
2022/08/03 04:38:58;;;;;;;0.00;0.00;;;;;;;18.76;61.78;100225.31;7363745;19;19942;-62
2022/08/03 04:41:25;;;;;;;0.10;0.10;;;;;;;18.76;62.33;100222.66;7367547;19;20014;-62
2022/08/03 04:43:53;;;;;;;0.00;0.00;;;;;;;18.75;62.32;100228.88;7365148;19;20014;-62
2022/08/03 04:46:22;;;;;;;0.00;0.00;;;;;;;18.75;61.84;100231.50;7367977;19;20328;-62
2022/08/03 04:48:49;;;;;;;0.10;0.10;;;;;;;18.69;62.55;100234.56;7368151;19;20010;-62
2022/08/03 04:51:15;;;;;;;0.00;0.00;;;;;;;18.69;62.55;100233.72;7365720;19;20027;-62
2022/08/03 04:53:42;;;;;;;0.00;0.00;;;;;;;18.59;62.27;100218.38;7364893;19;20657;-62
2022/08/03 04:56:07;;;;;;;0.03;0.03;;;;;;;18.64;61.92;100242.75;7367564;19;20026;-62
2022/08/03 04:58:33;;;;;;;0.00;0.00;;;;;;;18.61;61.38;100232.38;7366418;19;20443;-63
2022/08/03 05:00:58;;;;;;;0.05;0.05;;;;;;;18.61;61.90;100250.91;7366716;19;20023;-63
2022/08/03 05:03:24;;;;;;;0.10;0.10;;;;;;;18.59;61.35;100239.53;7366619;19;20017;-63
2022/08/03 05:05:49;;;;;;;0.00;0.00;;;;;;;18.57;61.50;100240.59;7367050;19;20082;-62
2022/08/03 05:08:15;;;;;;;0.10;0.10;;;;;;;18.55;61.27;100238.06;7366844;19;20014;-62
2022/08/03 05:10:40;;;;;;;0.00;0.00;;;;;;;18.53;61.48;100234.66;7366708;19;20010;-62
2022/08/03 05:13:10;;;;;;;0.00;0.00;;;;;;;18.51;61.47;100235.72;7364412;19;20044;-62
2022/08/03 05:15:36;;;;;;;0.00;0.00;;;;;;;18.49;61.12;100237.59;7365324;19;20763;-63
2022/08/03 05:18:01;;;;;;;0.00;0.00;;;;;;;18.45;61.55;100242.22;7366532;19;20027;-62
2022/08/03 05:20:27;;;;;;;0.00;0.00;;;;;;;18.42;61.96;100251.19;7365415;19;20033;-62
2022/08/03 05:22:52;;;;;;;0.00;0.00;;;;;;;18.33;61.68;100248.28;7366384;19;20002;-62
2022/08/03 05:25:17;;;;;;;0.00;0.00;;;;;;;18.35;62.16;100257.81;7364955;19;20018;-62
2022/08/03 05:27:43;;;;;;;0.00;0.00;;;;;;;18.33;61.89;100267.63;7366513;19;20010;-62
2022/08/03 05:30:08;;;;;;;0.10;0.10;;;;;;;18.29;62.34;100271.38;7363965;19;20933;-62
2022/08/03 05:32:34;;;;;;;0.00;0.00;;;;;;;18.31;62.20;100266.88;7367247;19;20029;-63
2022/08/03 05:34:59;;;;;;;0.00;0.00;;;;;;;18.33;62.71;100264.13;7367253;19;20030;-63
2022/08/03 05:37:25;;;;;;;0.00;0.00;;;;;;;18.33;62.36;100270.25;7365774;19;20058;-62
2022/08/03 05:39:50;;;;;;;0.10;0.10;;;;;;;18.30;62.46;100254.63;7366164;19;20064;-61
2022/08/03 05:42:16;;;;;;;0.00;0.00;;;;;;;18.41;62.49;100273.28;7366012;19;20013;-63
2022/08/03 05:44:41;;;;;;;0.00;0.00;;;;;;;18.48;62.38;100275.56;7367626;19;20066;-61
2022/08/03 05:47:06;;;;;;;0.10;0.10;;;;;;;18.52;62.30;100279.72;7365943;19;20014;-62
2022/08/03 05:49:32;;;;;;;0.00;0.00;;;;;;;18.53;62.10;100276.13;7364757;19;20043;-63
2022/08/03 05:51:57;;;;;;;0.00;0.00;;;;;;;18.56;62.18;100282.06;7365371;19;20014;-62
2022/08/03 05:54:23;;;;;;;0.00;0.00;;;;;;;18.59;62.10;100281.00;7365629;19;20487;-62
2022/08/03 05:56:48;;;;;;;0.00;0.00;;;;;;;18.61;61.99;100273.84;7366850;19;20014;-62
2022/08/03 05:59:14;;;;;;;0.05;0.05;;;;;;;18.65;62.53;100280.63;7354237;19;20007;-63
2022/08/03 06:01:39;;;;;;;0.00;0.00;;;;;;;18.67;62.35;100294.63;7363864;19;20029;-63
2022/08/03 06:04:04;;;;;;;0.00;0.00;;;;;;;18.71;62.38;100290.88;7364342;19;20017;-63
2022/08/03 06:06:30;;;;;;;0.00;0.00;;;;;;;18.68;62.54;100280.47;7365481;19;20006;-63
2022/08/03 06:08:55;;;;;;;0.00;0.00;;;;;;;18.73;62.36;100281.03;7365707;19;20086;-62
2022/08/03 06:11:21;;;;;;;0.00;0.00;;;;;;;18.68;62.86;100264.59;7363262;19;20015;-62
2022/08/03 06:13:46;;;;;;;0.00;0.00;;;;;;;18.72;62.50;100270.56;7364622;19;20011;-62
2022/08/03 06:16:11;;;;;;;0.00;0.00;;;;;;;18.72;62.49;100286.44;7361132;19;20006;-62
2022/08/03 06:18:37;;;;;;;0.10;0.10;;;;;;;18.70;62.39;100278.56;7364146;19;20010;-62
2022/08/03 06:21:03;;;;;;;0.00;0.00;;;;;;;18.68;62.73;100285.75;7363445;19;20014;-62
2022/08/03 06:23:29;;;;;;;0.00;0.00;;;;;;;18.67;62.24;100305.19;7364417;19;20010;-62
2022/08/03 06:25:54;;;;;;;0.00;0.00;;;;;;;18.63;63.01;100282.53;7360824;19;20013;-62
2022/08/03 06:28:20;;;;;;;0.10;0.10;;;;;;;18.63;62.54;100293.09;7364206;19;20009;-63
2022/08/03 06:30:45;;;;;;;0.00;0.00;;;;;;;18.63;62.47;100303.69;7360996;19;20736;-62
2022/08/03 06:33:11;;;;;;;0.00;0.00;;;;;;;18.65;62.79;100307.06;7359005;19;20480;-63
2022/08/03 06:35:36;;;;;;;0.00;0.00;;;;;;;18.66;62.79;100299.06;7364177;19;20015;-62
2022/08/03 06:38:02;;;;;;;0.00;0.00;;;;;;;18.67;62.99;100295.47;7346627;19;20774;-61
2022/08/03 06:40:28;;;;;;;0.00;0.00;;;;;;;18.66;62.88;100287.63;7357279;19;20013;-62
2022/08/03 06:42:55;;;;;;;0.00;0.00;;;;;;;18.69;62.29;100298.03;7351001;19;20044;-62
2022/08/03 06:45:20;;;;;;;0.10;0.10;;;;;;;18.57;62.41;100294.34;7355864;19;20006;-62
2022/08/03 06:47:46;;;;;;;0.00;0.00;;;;;;;18.66;62.87;100304.34;7353185;19;20487;-63
2022/08/03 06:50:11;;;;;;;0.00;0.00;;;;;;;18.66;62.50;100312.28;7361546;19;20044;-62
2022/08/03 06:52:37;;;;;;;0.00;0.00;;;;;;;18.70;62.31;100305.03;7363510;19;20018;-63
2022/08/03 06:55:03;;;;;;;0.00;0.00;;;;;;;18.72;62.13;100308.44;7363234;19;20024;-62
2022/08/03 06:57:28;;;;;;;0.00;0.00;;;;;;;18.75;62.77;100302.94;7359972;19;20046;-62
2022/08/03 07:00:00;;;;;;;0.10;0.10;;;;;;;18.79;62.55;100311.53;7345037;19;20420;-62
2022/08/03 07:02:26;;;;;;;0.00;0.00;;;;;;;18.78;62.42;100300.09;7345137;19;20015;-62
2022/08/03 07:04:51;;;;;;;0.00;0.00;;;;;;;18.86;62.39;100300.47;7362042;19;20016;-62
2022/08/03 07:07:18;;;;;;;0.00;0.00;;;;;;;18.90;61.66;100301.13;7361283;19;20007;-62
2022/08/03 07:09:43;;;;;;;0.00;0.00;;;;;;;18.93;61.93;100301.78;7363961;19;20006;-62
2022/08/03 07:12:08;;;;;;;0.00;0.00;;;;;;;18.96;61.47;100307.81;7358394;19;20498;-62
2022/08/03 07:14:34;;;;;;;0.05;0.05;;;;;;;18.99;61.42;100304.97;7358732;19;20486;-62
2022/08/03 07:16:59;;;;;;;0.00;0.00;;;;;;;19.01;61.34;100303.06;7355741;19;20014;-63
2022/08/03 07:19:25;;;;;;;0.10;0.10;;;;;;;19.05;60.96;100304.59;7356857;19;20474;-62
2022/08/03 07:21:50;;;;;;;0.10;0.10;;;;;;;19.06;60.93;100307.16;7356279;19;20010;-62
2022/08/03 07:24:15;;;;;;;0.00;0.00;;;;;;;19.07;61.38;100303.56;7361272;19;20006;-62
2022/08/03 07:26:41;;;;;;;0.00;0.00;;;;;;;19.11;61.21;100301.53;7360130;19;20435;-62
2022/08/03 07:29:06;;;;;;;0.03;0.03;;;;;;;19.14;61.30;100301.34;7352346;19;20006;-62
2022/08/03 07:31:32;;;;;;;0.10;0.10;;;;;;;19.18;61.26;100305.50;7361136;19;20015;-63
2022/08/03 07:33:57;;;;;;;0.10;0.10;;;;;;;19.19;61.14;100301.91;7360526;19;20010;-62
2022/08/03 07:36:23;;;;;;;0.00;0.00;;;;;;;19.24;60.48;100297.16;7354562;19;20014;-62
2022/08/03 07:38:49;;;;;;;0.00;0.00;;;;;;;19.27;60.44;100304.91;7351681;19;20078;-62
2022/08/03 07:41:15;;;;;;;0.00;0.00;;;;;;;19.33;60.55;100299.22;7358086;19;20091;-62
2022/08/03 07:43:40;;;;;;;0.00;0.00;;;;;;;19.33;60.67;100293.91;7355299;19;20738;-62
2022/08/03 07:46:06;;;;;;;0.00;0.00;;;;;;;19.43;59.98;100305.59;7358519;19;20010;-62
2022/08/03 07:48:31;;;;;;;0.10;0.10;;;;;;;19.48;60.09;100315.03;7358746;19;21057;-61
2022/08/03 07:50:56;;;;;;;0.10;0.10;;;;;;;19.52;59.50;100321.84;7355444;19;20037;-62
2022/08/03 07:53:22;;;;;;;0.08;0.08;;;;;;;19.52;59.27;100304.16;7360587;19;20019;-62
2022/08/03 07:55:47;;;;;;;0.00;0.00;;;;;;;19.55;60.11;100324.28;7356774;19;20027;-62
2022/08/03 07:58:16;;;;;;;0.00;0.00;;;;;;;19.57;59.61;100332.97;7355486;19;20068;-62
2022/08/03 08:00:43;;;;;;;0.08;0.08;;;;;;;19.64;59.75;100334.31;7359111;19;20014;-62
2022/08/03 08:03:09;;;;;;;0.03;0.03;;;;;;;19.72;59.77;100332.00;7360998;19;20506;-62
2022/08/03 08:05:35;;;;;;;0.00;0.00;;;;;;;19.81;58.82;100334.00;7362131;19;20018;-62
2022/08/03 08:08:01;;;;;;;0.03;0.03;;;;;;;19.87;58.94;100348.66;7362559;19;20011;-62
2022/08/03 08:10:27;;;;;;;0.10;0.10;;;;;;;19.92;58.76;100354.50;7362826;19;20086;-62
2022/08/03 08:12:53;;;;;;;0.10;0.10;;;;;;;19.99;58.57;100349.66;7361657;19;20018;-62
2022/08/03 08:15:19;;;;;;;0.00;0.00;;;;;;;20.03;58.60;100353.78;7366728;19;20504;-62
2022/08/03 08:17:50;;;;;;;0.00;0.00;;;;;;;20.12;58.66;100355.78;7368035;19;20134;-62
2022/08/03 08:20:21;;;;;;;0.00;0.00;;;;;;;20.18;58.51;100350.94;7365558;19;20011;-62
2022/08/03 08:22:47;;;;;;;0.00;0.00;;;;;;;20.24;58.88;100341.72;7368514;19;20010;-62
2022/08/03 08:25:12;;;;;;;0.10;0.10;;;;;;;20.31;57.58;100334.19;7364715;19;20016;-62
2022/08/03 08:27:45;;;;;;;0.00;0.00;;;;;;;20.42;57.58;100345.75;7365738;19;20015;-62
2022/08/03 08:30:12;;;;;;;0.00;0.00;;;;;;;20.39;57.14;100330.06;7367439;19;20006;-62
2022/08/03 08:32:38;;;;;;;0.08;0.08;;;;;;;20.32;57.46;100323.47;7366475;19;20130;-61
2022/08/03 08:35:05;;;;;;;0.03;0.03;;;;;;;20.42;57.60;100337.78;7365957;19;20066;-62
2022/08/03 08:37:30;;;;;;;0.00;0.00;;;;;;;20.44;57.17;100341.19;7364968;19;20018;-62
2022/08/03 08:39:56;;;;;;;0.00;0.00;;;;;;;20.45;57.74;100340.22;7367950;19;20018;-62
2022/08/03 08:42:21;;;;;;;0.00;0.00;;;;;;;20.49;57.86;100342.72;7367489;19;20018;-62
2022/08/03 08:44:47;;;;;;;0.10;0.10;;;;;;;20.55;57.01;100352.91;7365226;19;20107;-62
2022/08/03 08:47:13;;;;;;;0.05;0.05;;;;;;;20.62;56.96;100348.84;7362583;19;20010;-62
2022/08/03 08:49:40;;;;;;;0.00;0.00;;;;;;;20.67;57.18;100342.25;7366772;19;20014;-62
2022/08/03 08:52:08;;;;;;;0.10;0.10;;;;;;;20.78;57.44;100349.44;7364611;19;20471;-62
2022/08/03 08:54:35;;;;;;;0.10;0.10;;;;;;;20.85;56.71;100345.41;7367462;19;20413;-62
2022/08/03 08:57:02;;;;;;;;;;;;;;;21.04;57.96;100360.91;7365658;19;20011;-63
2022/08/03 08:59:31;;;;;;;0.10;0.10;;;;;;;21.08;56.01;100346.41;7363746;19;19930;-62
2022/08/03 09:01:57;;;;;;;0.03;0.03;;;;;;;21.16;55.38;100337.91;7367772;19;20040;-63
2022/08/03 09:04:23;;;;;;;0.00;0.00;;;;;;;21.29;55.52;100344.03;7366690;19;20884;-62
2022/08/03 09:06:49;;;;;;;0.03;0.03;;;;;;;21.38;55.54;100348.69;7366408;19;21268;-62
2022/08/03 09:09:15;;;;;;;0.00;0.00;;;;;;;21.49;55.33;100356.72;7364471;19;20054;-62
2022/08/03 09:11:43;;;;;;;0.00;0.00;;;;;;;21.55;55.22;100343.97;7365311;19;22660;-62
2022/08/03 09:14:10;;;;;;;0.10;0.10;;;;;;;21.67;54.99;100351.84;7358475;19;20014;-62
2022/08/03 09:16:35;;;;;;;0.05;0.05;;;;;;;21.77;54.38;100360.84;7363645;19;20494;-62
2022/08/03 09:19:12;;;;;;;0.00;0.00;;;;;;;21.95;54.86;100368.41;7358393;19;20019;-62
2022/08/03 09:21:38;;;;;;;0.00;0.00;;;;;;;21.96;53.87;100370.94;7364745;19;20029;-62
2022/08/03 09:24:05;;;;;;;0.00;0.00;;;;;;;21.97;54.02;100369.97;7361203;19;20014;-62
2022/08/03 09:26:33;;;;;;;0.05;0.05;;;;;;;21.99;54.27;100365.38;7359799;19;20056;-62
2022/08/03 09:29:03;;;;;;;0.00;0.00;;;;;;;21.98;54.48;100379.63;7362951;19;20074;-62
2022/08/03 09:31:33;;;;;;;0.08;0.08;;;;;;;21.99;54.73;100376.00;7349839;19;20052;-62
2022/08/03 09:34:06;;;;;;;0.00;0.00;;;;;;;22.01;54.54;100368.78;7360801;19;20655;-63
2022/08/03 09:36:36;;;;;;;0.10;0.10;;;;;;;22.07;54.54;100371.94;7362573;19;20014;-63
2022/08/03 09:39:10;;;;;;;0.00;0.00;;;;;;;22.15;54.50;100375.75;7360793;19;20042;-62
2022/08/03 09:41:35;;;;;;;0.00;0.00;;;;;;;;;;7363089;19;20061;-63
2022/08/03 09:44:01;;;;;;;0.00;0.00;;;;;;;22.29;53.89;100382.66;7361502;19;20649;-62
2022/08/03 09:46:30;;;;;;;0.00;0.00;;;;;;;22.37;53.53;100380.25;7361796;19;20099;-62
2022/08/03 09:49:09;;;;;;;0.05;0.05;;;;;;;22.53;54.39;100370.13;7361543;19;20022;-62
2022/08/03 09:51:34;;;;;;;0.10;0.10;;;;;;;22.59;53.32;100363.47;7361994;19;20015;-62
2022/08/03 09:54:02;;;;;;;0.00;0.00;;;;;;;22.70;53.40;100359.97;7361463;19;20013;-62
2022/08/03 09:56:42;;;;;;;0.00;0.00;;;;;;;22.89;54.44;100362.91;7363293;19;20019;-62
2022/08/03 09:59:09;;;;;;;0.10;0.10;;;;;;;23.05;53.06;100360.69;7360202;19;20585;-62
2022/08/03 10:01:36;;;;;;;0.00;0.00;;;;;;;23.26;51.80;100350.13;7357066;19;20006;-62
2022/08/03 10:04:01;;;;;;;0.10;0.10;;;;;;;23.42;51.97;100357.75;7359045;19;20437;-62
2022/08/03 10:06:27;;;;;;;0.00;0.00;;;;;;;23.67;52.13;100385.03;7361890;19;20082;-62
2022/08/03 10:09:12;;;;;;;0.00;0.00;;;;;;;23.88;52.37;100379.78;7362846;19;20458;-62
2022/08/03 10:11:39;;;;;;;0.10;0.10;;;;;;;23.78;51.58;100379.69;7218168;19;2827910;-62
2022/08/03 10:14:07;;;;;;;0.10;0.10;;;;;;;23.78;51.32;100379.69;7361502;19;20435;-62
2022/08/03 10:16:39;;;;;;;0.00;0.00;;;;;;;23.85;51.44;100364.03;7365648;19;20017;-62
2022/08/03 10:19:07;;;;;;;0.00;0.00;;;;;;;24.00;50.94;100363.59;7361734;19;20738;-61
2022/08/03 10:21:45;;;;;;;0.00;0.00;;;;;;;24.23;51.18;100374.09;7359573;19;20478;-62
2022/08/03 10:24:14;;;;;;;0.10;0.10;;;;;;;24.31;49.98;100387.66;7365054;19;20046;-63
2022/08/03 10:26:43;;;;;;;0.00;0.00;;;;;;;24.33;48.95;100385.69;7364872;19;20035;-62
2022/08/03 10:29:13;;;;;;;0.00;0.00;;;;;;;24.34;49.17;100382.91;7361972;19;20569;-61
2022/08/03 10:31:43;;;;;;;0.00;0.00;;;;;;;24.26;49.95;100384.53;7363941;19;20046;-61
2022/08/03 10:34:21;;;;;;;0.00;0.00;;;;;;;24.37;50.41;100379.16;7364875;19;20030;-62
2022/08/03 10:36:48;;;;;;;0.00;0.00;;;;;;;24.44;49.87;100375.00;7363597;19;20010;-62
2022/08/03 10:39:19;;;;;;;0.00;0.00;;;;;;;24.77;49.92;100378.38;7362063;19;20745;-62
2022/08/03 10:41:47;;;;;;;0.00;0.00;;;;;;;25.01;48.64;100364.72;7363739;19;20078;-62
2022/08/03 10:44:17;;;;;;;0.00;0.00;;;;;;;25.35;48.40;100378.63;7365988;19;20053;-62
2022/08/03 10:46:45;;;;;;;0.00;0.00;;;;;;;25.54;46.87;100372.44;7365479;19;20006;-62
2022/08/03 10:49:16;;;;;;;0.10;0.10;;;;;;;25.75;47.47;100381.22;7366023;19;20608;-62
2022/08/03 10:51:44;;;;;;;0.10;0.10;;;;;;;25.86;46.20;100393.63;7363268;19;20920;-62
2022/08/03 10:57:46;;;;;;;0.10;0.10;;;;;;;25.90;47.26;100386.97;7262218;19;2004518;-62
2022/08/03 11:00:17;;;;;;;0.10;0.10;;;;;;;25.83;45.89;100388.53;7363138;19;20006;-62
2022/08/03 11:03:07;;;;;;;0.03;0.03;;;;;;;25.92;47.83;100382.34;7360704;19;20030;-63
2022/08/03 11:05:39;;;;;;;0.10;0.10;;;;;;;25.98;46.57;100371.06;7361300;19;20094;-62
2022/08/03 11:08:19;;;;;;;0.10;0.10;;;;;;;26.16;47.62;100389.09;7360092;19;20097;-62
2022/08/03 11:10:45;;;;;;;0.10;0.10;;;;;;;26.09;45.55;100362.88;7360048;19;20673;-62
2022/08/03 11:13:15;;;;;;;0.10;0.10;;;;;;;26.30;45.41;100383.28;7361623;19;20023;-62
2022/08/03 11:15:44;;;;;;;0.10;0.10;;;;;;;26.30;44.53;100396.66;7363242;19;20015;-62
2022/08/03 11:18:11;;;;;;;0.10;0.10;;;;;;;26.26;44.64;100393.44;7355598;19;20024;-61
2022/08/03 11:21:03;;;;;;;0.00;0.00;;;;;;;26.26;46.49;100389.94;7362536;19;20017;-62
2022/08/03 11:23:47;;;;;;;0.10;0.10;;;;;;;26.18;46.65;100392.47;7259510;19;2004388;-60
2022/08/03 11:26:14;;;;;;;0.00;0.00;;;;;;;26.03;45.25;100403.59;7359631;19;21326;-62
2022/08/03 11:28:41;;;;;;;0.10;0.10;;;;;;;25.92;45.65;100406.41;7361453;19;20030;-61
2022/08/03 11:31:22;;;;;;;0.00;0.00;;;;;;;25.79;46.13;100403.16;7358257;19;20018;-62
2022/08/03 11:34:04;;;;;;;0.10;0.10;;;;;;;25.55;46.74;100404.41;7361885;19;20698;-62
2022/08/03 11:36:30;;;;;;;0.00;0.00;;;;;;;25.26;46.65;100401.66;7360964;19;20014;-62
2022/08/03 11:39:12;;;;;;;0.03;0.03;;;;;;;25.08;46.98;100393.44;7358639;19;20021;-62
2022/08/03 11:41:38;;;;;;;0.10;0.10;;;;;;;24.77;47.50;100407.75;7360890;19;20010;-62